Time;durP1;ratioP1;P1;durP2;ratioP2;P2;SDS_P1;SDS_P2;PMS_P1;PMS_P2;Temp;Humidity;BMP_temperature;BMP_pressure;BME280_temperature;BME280_humidity;BME280_pressure;Samples;Min_cycle;Max_cycle;Signal;HPM_P1;HPM_P2
2023/07/26 00:00:29;;;;;;;3.50;3.40;;;16.50;99.90;;;;;;4991488;28;20263;-61
2023/07/26 00:02:55;;;;;;;5.70;3.50;;;16.50;99.90;;;;;;4991531;28;20258;-62
2023/07/26 00:05:20;;;;;;;3.57;3.47;;;16.50;99.90;;;;;;4992840;28;20215;-63
2023/07/26 00:07:46;;;;;;;3.63;3.43;;;16.40;99.90;;;;;;4991940;28;20268;-62
2023/07/26 00:10:12;;;;;;;3.73;3.50;;;16.40;99.90;;;;;;4993216;28;20637;-62
2023/07/26 00:12:38;;;;;;;3.90;3.60;;;16.40;99.90;;;;;;4991372;28;20644;-62
2023/07/26 00:15:04;;;;;;;3.60;3.40;;;16.40;99.90;;;;;;4992580;28;20242;-62
2023/07/26 00:17:29;;;;;;;3.27;3.17;;;16.40;99.90;;;;;;4992001;28;20616;-61
2023/07/26 00:19:55;;;;;;;3.10;3.00;;;16.30;99.90;;;;;;4992431;28;20464;-62
2023/07/26 00:22:21;;;;;;;5.27;3.30;;;16.30;99.90;;;;;;4993134;28;20534;-62
2023/07/26 00:24:46;;;;;;;3.43;3.33;;;16.30;99.90;;;;;;4992042;28;20257;-62
2023/07/26 00:27:14;;;;;;;3.40;3.20;;;16.30;99.90;;;;;;4990603;28;20220;-62
2023/07/26 00:29:39;;;;;;;4.00;3.20;;;16.30;99.90;;;;;;4991393;28;20199;-62
2023/07/26 00:32:05;;;;;;;3.00;2.90;;;16.30;99.90;;;;;;4990092;28;20443;-63
2023/07/26 00:34:31;;;;;;;3.60;3.40;;;16.30;99.90;;;;;;4991748;28;20172;-62
2023/07/26 00:37:00;;;;;;;3.57;3.30;;;16.20;99.90;;;;;;4994295;28;20430;-63
2023/07/26 00:39:25;;;;;;;3.53;3.33;;;16.30;99.90;;;;;;4996583;28;20265;-62
2023/07/26 00:41:51;;;;;;;3.70;3.43;;;16.30;99.90;;;;;;4995673;28;20513;-63
2023/07/26 00:44:17;;;;;;;7.33;3.60;;;16.30;99.90;;;;;;4996467;28;20183;-63
2023/07/26 00:46:43;;;;;;;3.90;3.60;;;16.30;99.90;;;;;;4995572;28;20195;-63
2023/07/26 00:49:09;;;;;;;3.40;3.20;;;16.30;99.90;;;;;;4996152;28;20182;-63
2023/07/26 00:51:35;;;;;;;3.90;3.20;;;16.40;99.90;;;;;;4995521;28;20828;-62
2023/07/26 00:54:03;;;;;;;4.00;3.70;;;16.40;99.90;;;;;;4995752;28;20407;-63
2023/07/26 00:56:29;;;;;;;3.37;3.23;;;16.30;99.90;;;;;;4993654;28;20821;-59
2023/07/26 00:58:55;;;;;;;3.53;3.30;;;16.40;99.90;;;;;;4995778;28;20498;-62
2023/07/26 01:01:21;;;;;;;3.80;3.60;;;16.40;99.90;;;;;;4996383;28;20179;-62
2023/07/26 01:03:46;;;;;;;4.03;3.73;;;16.40;99.90;;;;;;4995313;28;20507;-62
2023/07/26 01:06:44;;;;;;;3.80;3.37;;;16.40;99.90;;;;;;4996200;28;20199;-62
2023/07/26 01:09:20;;;;;;;3.83;3.53;;;16.50;99.90;;;;;;4995856;28;20195;-63
2023/07/26 01:12:06;;;;;;;4.00;3.67;;;16.40;99.90;;;;;;4995240;28;20504;-63
2023/07/26 01:14:41;;;;;;;3.47;3.27;;;16.40;99.90;;;;;;4995502;28;20438;-62
2023/07/26 01:17:07;;;;;;;3.83;3.50;;;16.40;99.90;;;;;;4995940;28;20429;-63
2023/07/26 01:19:33;;;;;;;5.20;3.60;;;16.40;99.90;;;;;;4993811;28;20761;-62
2023/07/26 01:21:59;;;;;;;9.97;4.20;;;16.40;99.90;;;;;;4995141;28;20422;-63
2023/07/26 01:24:25;;;;;;;4.17;3.87;;;16.40;99.90;;;;;;4994502;28;20188;-63
2023/07/26 01:26:54;;;;;;;3.90;3.60;;;16.40;99.90;;;;;;4990500;28;20485;-62
2023/07/26 01:29:20;;;;;;;4.13;3.93;;;16.50;99.90;;;;;;4995164;28;20493;-63
2023/07/26 01:31:46;;;;;;;4.30;3.90;;;16.40;99.90;;;;;;4994580;28;20922;-63
2023/07/26 01:34:12;;;;;;;3.50;3.30;;;16.40;99.90;;;;;;4995443;28;20183;-63
2023/07/26 01:36:40;;;;;;;3.40;3.20;;;16.50;99.90;;;;;;4994118;28;20470;-62
2023/07/26 01:39:07;;;;;;;4.13;3.43;;;16.40;99.90;;;;;;4994846;28;20509;-63
2023/07/26 01:41:33;;;;;;;3.63;3.40;;;16.20;99.90;;;;;;4994849;28;20407;-60
2023/07/26 01:43:59;;;;;;;6.20;3.53;;;16.20;99.90;;;;;;4994858;28;20429;-63
2023/07/26 01:46:25;;;;;;;3.63;3.43;;;16.20;99.90;;;;;;4994937;28;20503;-63
2023/07/26 01:48:50;;;;;;;3.50;3.30;;;16.20;99.90;;;;;;4991784;28;20466;-63
2023/07/26 01:51:16;;;;;;;3.33;3.13;;;16.20;99.90;;;;;;4994878;28;20179;-63
2023/07/26 01:53:43;;;;;;;3.60;3.40;;;16.20;99.90;;;;;;4993724;28;20187;-62
2023/07/26 01:56:08;;;;;;;3.37;3.20;;;16.00;99.90;;;;;;4994292;28;20181;-61
2023/07/26 01:58:34;;;;;;;3.43;3.23;;;15.90;99.90;;;;;;4994333;28;20918;-60
2023/07/26 02:01:03;;;;;;;4.03;3.60;;;15.90;99.90;;;;;;4993419;28;20178;-62
2023/07/26 02:03:28;;;;;;;3.80;3.50;;;15.90;99.90;;;;;;4995076;28;20182;-63
2023/07/26 02:05:54;;;;;;;3.83;3.47;;;15.90;99.90;;;;;;4993893;28;20569;-63
2023/07/26 02:08:21;;;;;;;3.30;3.10;;;16.00;99.90;;;;;;4994431;28;20212;-63
2023/07/26 02:10:47;;;;;;;3.63;3.43;;;16.00;99.90;;;;;;4993713;28;20190;-62
2023/07/26 02:13:13;;;;;;;3.93;3.73;;;16.00;99.90;;;;;;4994793;28;20419;-62
2023/07/26 02:15:40;;;;;;;3.70;3.40;;;16.00;99.90;;;;;;4993309;28;20436;-61
2023/07/26 02:18:06;;;;;;;3.50;3.30;;;16.00;99.90;;;;;;4992691;28;20201;-62
2023/07/26 02:20:32;;;;;;;3.97;3.67;;;16.10;99.90;;;;;;4993898;28;20525;-59
2023/07/26 02:22:59;;;;;;;3.30;3.03;;;16.10;99.90;;;;;;4992455;28;20514;-63
2023/07/26 02:25:24;;;;;;;3.60;3.40;;;16.10;99.90;;;;;;4994231;28;20407;-62
2023/07/26 02:27:51;;;;;;;4.00;3.70;;;16.10;99.90;;;;;;4993734;28;20466;-63
2023/07/26 02:30:16;;;;;;;3.50;3.27;;;16.20;99.90;;;;;;4991453;28;20176;-63
2023/07/26 02:32:42;;;;;;;3.80;3.60;;;16.10;99.90;;;;;;4993350;28;20426;-62
2023/07/26 02:35:08;;;;;;;3.70;3.40;;;16.20;99.90;;;;;;4994107;28;20297;-63
2023/07/26 02:37:34;;;;;;;3.60;3.40;;;16.20;99.90;;;;;;4993610;28;20191;-60
2023/07/26 02:40:00;;;;;;;5.20;3.80;;;16.20;99.90;;;;;;4993248;28;20783;-62
2023/07/26 02:42:27;;;;;;;3.73;3.53;;;16.20;99.90;;;;;;4980127;28;20185;-62
2023/07/26 02:44:54;;;;;;;5.40;4.90;;;16.20;99.90;;;;;;4987128;28;20747;-62
2023/07/26 02:47:20;;;;;;;3.93;3.57;;;16.20;99.90;;;;;;4992479;28;20455;-62
2023/07/26 02:49:45;;;;;;;4.13;3.80;;;16.30;99.90;;;;;;4993389;28;20411;-62
2023/07/26 02:52:11;;;;;;;3.90;3.67;;;16.30;99.90;;;;;;4991954;28;20184;-63
2023/07/26 02:54:40;;;;;;;4.40;4.00;;;16.30;99.90;;;;;;4992734;28;20178;-62
2023/07/26 02:57:06;;;;;;;3.83;3.50;;;16.40;99.90;;;;;;4994220;28;20489;-62
2023/07/26 02:59:31;;;;;;;3.70;3.40;;;16.30;99.90;;;;;;4993227;28;20180;-63
2023/07/26 03:01:57;;;;;;;6.40;3.93;;;16.30;99.90;;;;;;4991236;28;20172;-63
2023/07/26 03:04:23;;;;;;;4.20;4.00;;;16.30;99.90;;;;;;4993466;28;20635;-63
2023/07/26 03:06:51;;;;;;;5.93;4.37;;;16.20;99.90;;;;;;4992528;28;20209;-62
2023/07/26 03:09:17;;;;;;;4.63;4.30;;;16.20;99.90;;;;;;4993504;28;20506;-62
2023/07/26 03:11:42;;;;;;;3.90;3.70;;;16.20;99.90;;;;;;4992545;28;20502;-62
2023/07/26 03:14:08;;;;;;;4.07;3.77;;;16.20;99.90;;;;;;4993647;28;20498;-63
2023/07/26 03:16:34;;;;;;;4.00;3.80;;;16.30;99.90;;;;;;4992195;28;20190;-62
2023/07/26 03:18:59;;;;;;;5.37;4.97;;;16.30;99.90;;;;;;4992707;28;20210;-63
2023/07/26 03:21:25;;;;;;;4.03;3.83;;;16.40;99.90;;;;;;4993656;28;20178;-62
2023/07/26 03:23:51;;;;;;;3.97;3.67;;;16.40;99.90;;;;;;4990606;28;20286;-62
2023/07/26 03:26:17;;;;;;;5.50;4.00;;;16.40;99.90;;;;;;4992894;28;20207;-62
2023/07/26 03:28:42;;;;;;;7.93;4.63;;;16.40;99.90;;;;;;4992513;28;20259;-62
2023/07/26 03:31:08;;;;;;;5.73;4.47;;;16.40;99.90;;;;;;4992779;28;20187;-62
2023/07/26 03:33:34;;;;;;;5.40;5.00;;;16.40;99.90;;;;;;4993058;28;20191;-63
2023/07/26 03:36:00;;;;;;;7.10;6.40;;;16.00;99.90;;;;;;4991708;28;20228;-62
2023/07/26 03:38:25;;;;;;;6.50;5.37;;;15.80;99.90;;;;;;4993179;28;20536;-62
2023/07/26 03:40:51;;;;;;;6.53;4.80;;;15.90;99.90;;;;;;4992361;28;20175;-62
2023/07/26 03:43:17;;;;;;;4.77;4.47;;;15.90;99.90;;;;;;4992938;28;20172;-62
2023/07/26 03:45:42;;;;;;;5.23;4.80;;;15.80;99.90;;;;;;4978584;28;20185;-62
2023/07/26 03:48:08;;;;;;;7.30;6.73;;;15.80;99.90;;;;;;4985918;28;20199;-62
2023/07/26 03:50:34;;;;;;;5.37;4.97;;;15.90;99.90;;;;;;4993184;28;20186;-62
2023/07/26 03:53:00;;;;;;;6.17;5.77;;;15.90;99.90;;;;;;4991870;28;20179;-62
2023/07/26 03:55:26;;;;;;;5.90;5.40;;;16.00;99.90;;;;;;4991906;28;20183;-62
2023/07/26 03:57:51;;;;;;;5.27;4.93;;;16.10;99.90;;;;;;4990262;28;20477;-62
2023/07/26 04:00:17;;;;;;;5.20;4.80;;;16.10;99.90;;;;;;4993051;28;20175;-62
2023/07/26 04:02:43;;;;;;;5.53;5.23;;;16.10;99.90;;;;;;4992105;28;20175;-62
2023/07/26 04:05:09;;;;;;;4.73;4.40;;;16.10;99.90;;;;;;4992478;28;20183;-62
2023/07/26 04:07:39;;;;;;;5.40;5.00;;;16.10;99.90;;;;;;4992681;28;20211;-62
2023/07/26 04:10:06;;;;;;;5.67;5.17;;;16.10;99.90;;;;;;4973376;28;20419;-62
2023/07/26 04:12:31;;;;;;;6.73;6.13;;;15.90;99.90;;;;;;4983892;28;20461;-62
2023/07/26 04:14:57;;;;;;;6.00;5.60;;;15.90;99.90;;;;;;4992065;28;20438;-62
2023/07/26 04:17:23;;;;;;;6.67;6.07;;;16.00;99.90;;;;;;4989632;28;20194;-62
2023/07/26 04:19:49;;;;;;;6.17;5.50;;;16.00;99.90;;;;;;4990901;28;20187;-62
2023/07/26 04:22:14;;;;;;;5.90;5.40;;;16.10;99.90;;;;;;4992749;28;20582;-62
2023/07/26 04:24:44;;;;;;;6.10;5.70;;;16.10;99.90;;;;;;4992138;28;20179;-59
2023/07/26 04:27:12;;;;;;;5.70;5.30;;;16.10;99.90;;;;;;4992004;28;20681;-63
2023/07/26 04:29:42;;;;;;;6.00;5.50;;;16.10;99.90;;;;;;4991946;28;20414;-63
2023/07/26 04:32:08;;;;;;;5.53;5.17;;;16.20;99.90;;;;;;4992400;28;20422;-63
2023/07/26 04:34:34;;;;;;;5.87;5.47;;;16.20;99.90;;;;;;4992088;28;20426;-62
2023/07/26 04:37:00;;;;;;;6.67;6.20;;;16.20;99.90;;;;;;4982144;28;20269;-62
2023/07/26 04:39:25;;;;;;;5.60;5.20;;;16.30;99.90;;;;;;4973232;28;20176;-62
2023/07/26 04:41:51;;;;;;;6.43;5.40;;;16.30;99.90;;;;;;4986595;28;20438;-62
2023/07/26 04:44:17;;;;;;;5.30;5.00;;;16.30;99.90;;;;;;4992155;28;20175;-62
2023/07/26 04:46:42;;;;;;;6.40;5.70;;;16.40;99.90;;;;;;4989929;28;20261;-59
2023/07/26 04:49:08;;;;;;;6.00;5.50;;;16.40;99.90;;;;;;4990857;28;20184;-63
2023/07/26 04:51:34;;;;;;;6.43;5.90;;;16.50;99.90;;;;;;4992551;28;20620;-62
2023/07/26 04:54:00;;;;;;;7.80;5.73;;;16.60;99.90;;;;;;4991735;28;20179;-62
2023/07/26 04:56:26;;;;;;;7.90;7.30;;;16.60;99.90;;;;;;4991608;28;20198;-62
2023/07/26 04:58:52;;;;;;;7.00;6.50;;;16.60;99.90;;;;;;4991159;28;20180;-62
2023/07/26 05:01:19;;;;;;;7.07;6.37;;;16.60;99.90;;;;;;4988250;28;20425;-62
2023/07/26 05:03:45;;;;;;;7.03;6.53;;;16.60;99.90;;;;;;4991373;28;20514;-59
2023/07/26 05:06:11;;;;;;;7.70;7.00;;;16.40;99.90;;;;;;4992581;28;20558;-62
2023/07/26 05:08:37;;;;;;;8.90;6.90;;;16.30;99.90;;;;;;4991884;28;20858;-63
2023/07/26 05:11:03;;;;;;;7.80;7.00;;;16.20;99.90;;;;;;4990817;28;20176;-62
2023/07/26 05:13:29;;;;;;;7.47;6.87;;;16.20;99.90;;;;;;4992323;28;20469;-62
2023/07/26 05:15:55;;;;;;;6.60;6.07;;;16.20;99.90;;;;;;4988748;28;20419;-62
2023/07/26 05:18:20;;;;;;;7.77;7.20;;;16.20;99.90;;;;;;4989629;28;20438;-62
2023/07/26 05:20:50;;;;;;;7.27;6.67;;;16.30;99.90;;;;;;4991322;28;20179;-59
2023/07/26 05:23:16;;;;;;;6.90;6.40;;;16.30;99.90;;;;;;4993801;28;20180;-62
2023/07/26 05:25:42;;;;;;;6.40;6.00;;;16.40;99.90;;;;;;4995382;28;20510;-62
2023/07/26 05:28:08;;;;;;;6.80;6.20;;;16.50;99.90;;;;;;4994976;28;20494;-62
2023/07/26 05:30:41;;;;;;;8.50;6.07;;;16.50;99.90;;;;;;4991171;28;20191;-62
2023/07/26 05:33:08;;;;;;;6.90;5.53;;;16.50;99.90;;;;;;4994618;28;20226;-62
2023/07/26 05:35:34;;;;;;;6.20;5.80;;;16.60;99.90;;;;;;4994836;28;20497;-62
2023/07/26 05:38:01;;;;;;;6.23;5.77;;;16.60;99.90;;;;;;4988709;28;20438;-62
2023/07/26 05:40:27;;;;;;;7.00;6.50;;;16.70;99.90;;;;;;4984911;28;20950;-64
2023/07/26 05:42:53;;;;;;;6.60;6.20;;;16.70;99.90;;;;;;4994204;28;20431;-65
2023/07/26 05:45:19;;;;;;;5.83;5.43;;;16.80;99.90;;;;;;4991501;28;20179;-62
2023/07/26 05:47:45;;;;;;;6.30;5.90;;;16.80;99.90;;;;;;4991359;28;20462;-62
2023/07/26 05:50:11;;;;;;;5.70;5.30;;;16.90;99.90;;;;;;4990597;28;20437;-65
2023/07/26 05:52:37;;;;;;;5.97;5.60;;;16.90;99.90;;;;;;4994056;28;20423;-64
2023/07/26 05:55:04;;;;;;;6.10;5.63;;;17.00;99.90;;;;;;4992069;28;20183;-65
2023/07/26 05:57:30;;;;;;;5.83;5.50;;;17.00;99.90;;;;;;4994972;28;20895;-65
2023/07/26 05:59:56;;;;;;;4.73;4.43;;;17.10;99.90;;;;;;4991763;28;20415;-65
2023/07/26 06:02:21;;;;;;;6.00;5.60;;;17.10;99.90;;;;;;4977424;28;20430;-65
2023/07/26 06:04:47;;;;;;;6.47;5.97;;;17.20;99.90;;;;;;4980470;28;20229;-64
2023/07/26 06:07:14;;;;;;;5.37;5.07;;;17.20;99.90;;;;;;4994324;28;20706;-65
2023/07/26 06:09:40;;;;;;;6.60;6.20;;;17.30;99.90;;;;;;4994680;28;20477;-64
2023/07/26 06:12:06;;;;;;;5.93;5.63;;;17.30;99.90;;;;;;4989193;28;20431;-64
2023/07/26 06:14:32;;;;;;;5.67;5.37;;;17.40;99.90;;;;;;4994856;28;20183;-64
2023/07/26 06:16:58;;;;;;;6.07;5.47;;;17.40;99.90;;;;;;4994304;28;20442;-64
2023/07/26 06:19:24;;;;;;;5.73;5.30;;;17.50;99.90;;;;;;4994633;28;20222;-62
2023/07/26 06:21:55;;;;;;;6.20;5.90;;;17.50;99.90;;;;;;4993225;28;20844;-64
2023/07/26 06:24:22;;;;;;;5.77;5.37;;;17.60;99.90;;;;;;4992970;28;20180;-64
2023/07/26 06:26:48;;;;;;;6.47;6.07;;;17.60;99.90;;;;;;4985708;28;20538;-64
2023/07/26 06:29:14;;;;;;;5.87;5.50;;;17.70;99.90;;;;;;4988581;28;20452;-64
2023/07/26 06:31:40;;;;;;;6.27;5.77;;;17.70;99.90;;;;;;4990447;28;20184;-65
2023/07/26 06:34:06;;;;;;;6.50;6.10;;;17.80;99.90;;;;;;4993077;28;20176;-64
2023/07/26 06:36:31;;;;;;;5.37;5.00;;;17.80;99.90;;;;;;4994623;28;20227;-65
2023/07/26 06:38:57;;;;;;;6.10;5.70;;;17.90;99.90;;;;;;4994170;28;20581;-65
2023/07/26 06:41:23;;;;;;;6.40;6.00;;;17.90;99.90;;;;;;4994199;28;20586;-64
2023/07/26 06:43:48;;;;;;;5.87;5.57;;;18.00;99.90;;;;;;4993819;28;20267;-64
2023/07/26 06:46:14;;;;;;;5.57;5.27;;;18.00;99.90;;;;;;4994524;28;20281;-64
2023/07/26 06:48:40;;;;;;;5.27;4.87;;;18.00;99.90;;;;;;4994159;28;20190;-64
2023/07/26 06:51:07;;;;;;;6.03;5.53;;;18.00;99.90;;;;;;4992848;28;20710;-64
2023/07/26 06:53:33;;;;;;;6.10;5.60;;;18.00;99.90;;;;;;4992965;28;20431;-64
2023/07/26 06:55:59;;;;;;;6.10;5.70;;;18.00;99.90;;;;;;4993616;28;20183;-66
2023/07/26 06:58:25;;;;;;;5.40;5.10;;;18.10;99.90;;;;;;4992566;28;20186;-65
2023/07/26 07:00:52;;;;;;;5.73;5.40;;;18.10;99.90;;;;;;4993669;28;20445;-66
2023/07/26 07:03:18;;;;;;;6.20;5.80;;;18.20;99.90;;;;;;4993566;28;20416;-69
2023/07/26 07:05:44;;;;;;;5.70;5.40;;;18.20;99.90;;;;;;4982537;28;20419;-65
2023/07/26 07:08:09;;;;;;;7.30;5.70;;;18.20;99.90;;;;;;4991464;28;20520;-65
2023/07/26 07:10:36;;;;;;;6.47;5.97;;;18.30;99.90;;;;;;4989633;28;20624;-65
2023/07/26 07:13:03;;;;;;;7.97;7.47;;;18.30;99.90;;;;;;4983566;28;20419;-64
2023/07/26 07:15:29;;;;;;;7.90;7.30;;;18.40;99.90;;;;;;4993760;28;20229;-64
2023/07/26 07:17:55;;;;;;;6.97;6.37;;;18.50;99.90;;;;;;4992438;28;20513;-65
2023/07/26 07:20:21;;;;;;;6.63;6.07;;;18.60;99.90;;;;;;4993759;28;20510;-64
2023/07/26 07:22:47;;;;;;;7.50;6.67;;;18.60;99.90;;;;;;4993734;28;20415;-64
2023/07/26 07:25:12;;;;;;;6.90;5.10;;;18.80;99.90;;;;;;4993629;28;20527;-64
2023/07/26 07:27:38;;;;;;;6.27;5.87;;;18.80;99.90;;;;;;4993592;28;20257;-64
2023/07/26 07:30:05;;;;;;;8.70;7.03;;;18.80;99.90;;;;;;4988880;28;20183;-63
2023/07/26 07:32:31;;;;;;;8.40;7.73;;;18.90;99.90;;;;;;4989434;28;20242;-63
2023/07/26 07:34:57;;;;;;;7.87;7.27;;;19.00;99.90;;;;;;4990906;28;20463;-63
2023/07/26 07:37:23;;;;;;;7.57;6.93;;;19.00;99.90;;;;;;4991070;28;20176;-63
2023/07/26 07:39:48;;;;;;;7.40;6.77;;;19.00;99.90;;;;;;4986700;28;20183;-64
2023/07/26 07:42:14;;;;;;;8.80;8.00;;;19.20;99.90;;;;;;4992404;28;20246;-64
2023/07/26 07:44:40;;;;;;;8.63;7.30;;;19.30;99.90;;;;;;4992677;28;20191;-62
2023/07/26 07:47:06;;;;;;;7.30;6.60;;;19.40;99.90;;;;;;4989629;28;20215;-63
2023/07/26 07:49:31;;;;;;;7.20;6.67;;;19.50;99.90;;;;;;4988123;28;20423;-64
2023/07/26 07:51:57;;;;;;;7.40;6.70;;;19.60;99.90;;;;;;4991669;28;20180;-63
2023/07/26 07:54:23;;;;;;;7.53;6.83;;;19.70;99.90;;;;;;4992760;28;20264;-63
2023/07/26 07:56:52;;;;;;;9.90;8.67;;;19.70;99.90;;;;;;4992381;28;20223;-64
2023/07/26 07:59:17;;;;;;;7.50;6.90;;;19.80;99.90;;;;;;4993459;28;20180;-65
2023/07/26 08:01:43;;;;;;;7.87;7.07;;;19.90;99.90;;;;;;5006284;28;20415;-66
2023/07/26 08:04:09;;;;;;;10.13;8.10;;;19.90;99.90;;;;;;4987760;28;20187;-66
2023/07/26 08:06:34;;;;;;;11.90;10.07;;;20.00;99.90;;;;;;4992876;28;20258;-66
2023/07/26 08:09:00;;;;;;;9.43;8.53;;;20.00;99.90;;;;;;4992421;28;20176;-66
2023/07/26 08:11:26;;;;;;;8.10;7.50;;;20.00;99.90;;;;;;4982843;28;20194;-66
2023/07/26 08:13:52;;;;;;;10.10;7.73;;;20.10;99.90;;;;;;4992441;28;20194;-66
2023/07/26 08:16:17;;;;;;;9.47;8.47;;;20.20;99.90;;;;;;4984710;28;20198;-66
2023/07/26 08:18:43;;;;;;;9.90;7.97;;;20.30;99.90;;;;;;4990313;28;20411;-65
2023/07/26 08:21:11;;;;;;;8.70;7.80;;;20.40;99.90;;;;;;4992130;28;20206;-66
2023/07/26 08:23:37;;;;;;;8.20;7.50;;;20.50;99.90;;;;;;4992318;28;20690;-64
2023/07/26 08:26:04;;;;;;;49.83;38.77;;;20.50;99.90;;;;;;4991979;28;20573;-68
2023/07/26 08:28:30;;;;;;;11.10;10.20;;;20.50;99.90;;;;;;4992379;28;20657;-68
2023/07/26 08:30:59;;;;;;;13.13;11.43;;;20.40;99.90;;;;;;4992016;28;20399;-68
2023/07/26 08:33:25;;;;;;;21.17;18.40;;;20.50;99.90;;;;;;4992074;28;20529;-67
2023/07/26 08:35:51;;;;;;;9.50;8.80;;;20.60;99.90;;;;;;4989250;28;20598;-68
2023/07/26 08:38:19;;;;;;;11.73;10.30;;;20.70;99.90;;;;;;4990540;28;21624;-68
2023/07/26 08:40:49;;;;;;;26.20;20.50;;;20.70;99.90;;;;;;4990317;28;20453;-68
2023/07/26 08:43:19;;;;;;;45.60;34.80;;;20.80;99.90;;;;;;4991896;28;20925;-68
2023/07/26 08:45:46;;;;;;;29.40;23.83;;;20.90;99.90;;;;;;4990220;28;20435;-68
2023/07/26 08:48:12;;;;;;;17.27;15.57;;;20.90;99.90;;;;;;4991809;28;20788;-67
2023/07/26 08:50:41;;;;;;;13.70;12.37;;;21.10;99.90;;;;;;4992382;28;20447;-67
2023/07/26 08:53:09;;;;;;;17.43;15.60;;;21.20;99.90;;;;;;4991889;28;20410;-66
2023/07/26 08:55:35;;;;;;;71.30;57.37;;;21.30;99.90;;;;;;4992378;28;20497;-67
2023/07/26 08:58:03;;;;;;;62.53;50.63;;;21.50;99.90;;;;;;4993385;28;20439;-66
2023/07/26 09:00:29;;;;;;;23.30;20.93;;;21.70;99.90;;;;;;4996138;28;20415;-67
2023/07/26 09:02:57;;;;;;;22.03;19.77;;;21.80;98.70;;;;;;4991977;28;20423;-67
2023/07/26 09:05:23;;;;;;;34.27;28.37;;;22.00;99.00;;;;;;4986873;28;20522;-67
2023/07/26 09:07:52;;;;;;;55.03;49.30;;;22.10;98.00;;;;;;4995956;28;20894;-67
2023/07/26 09:10:28;;;;;;;24.00;21.63;;;22.20;96.50;;;;;;4995449;28;20411;-67
2023/07/26 09:13:14;;;;;;;11.43;10.60;;;22.10;95.80;;;;;;4994081;28;20494;-67
2023/07/26 09:15:42;;;;;;;21.03;18.87;;;22.20;95.50;;;;;;4995105;28;20475;-67
2023/07/26 09:18:12;;;;;;;21.23;19.03;;;22.20;95.00;;;;;;4995189;28;20826;-67
2023/07/26 09:20:38;;;;;;;9.63;8.93;;;22.20;93.80;;;;;;4995710;28;20408;-66
2023/07/26 09:23:05;;;;;;;11.53;10.63;;;22.20;93.80;;;;;;4995040;28;20395;-67
2023/07/26 09:25:40;;;;;;;9.57;9.00;;;22.30;94.00;;;;;;4995702;28;20407;-67
2023/07/26 09:28:08;;;;;;;13.37;12.30;;;22.40;94.00;;;;;;4990086;28;21041;-67
2023/07/26 09:30:36;;;;;;;9.93;9.23;;;22.40;94.60;;;;;;4995612;28;20399;-68
2023/07/26 09:33:02;;;;;;;10.63;9.73;;;22.40;94.40;;;;;;4991215;28;20424;-67
2023/07/26 09:35:31;;;;;;;8.90;8.30;;;22.50;92.20;;;;;;4988776;28;20475;-68
2023/07/26 09:37:58;;;;;;;8.27;7.77;;;22.30;91.30;;;;;;4993399;28;20969;-68
2023/07/26 09:40:32;;;;;;;9.03;8.53;;;22.10;91.60;;;;;;4995416;28;20418;-67
2023/07/26 09:42:57;;;;;;;8.10;7.40;;;22.10;92.90;;;;;;4994731;28;20418;-66
2023/07/26 09:45:24;;;;;;;7.90;7.37;;;22.00;91.30;;;;;;4991132;28;20435;-67
2023/07/26 09:48:03;;;;;;;10.10;9.40;;;22.00;92.80;;;;;;4993700;28;20235;-70
2023/07/26 09:50:30;;;;;;;8.43;7.73;;;21.90;93.50;;;;;;4993852;28;20921;-68
2023/07/26 09:52:56;;;;;;;8.83;8.23;;;21.90;93.80;;;;;;4994533;28;20469;-67
2023/07/26 09:55:24;;;;;;;9.30;8.60;;;21.90;94.50;;;;;;4995391;28;20443;-67
2023/07/26 09:57:54;;;;;;;60.23;54.27;;;21.90;95.00;;;;;;4995404;28;20429;-68
2023/07/26 10:00:23;;;;;;;11.07;10.27;;;21.90;94.10;;;;;;4992148;28;20403;-68
2023/07/26 10:03:05;;;;;;;9.50;8.80;;;22.00;93.00;;;;;;4994917;28;20396;-69
2023/07/26 10:05:42;;;;;;;11.87;10.93;;;21.90;92.50;;;;;;4993361;28;20468;-68
2023/07/26 10:08:08;;;;;;;9.80;9.10;;;21.70;93.90;;;;;;4992208;28;20801;-67
2023/07/26 10:10:34;;;;;;;9.37;8.67;;;21.40;94.60;;;;;;4993909;28;20812;-68
2023/07/26 10:13:01;;;;;;;7.77;7.27;;;21.30;94.90;;;;;;4992662;28;20538;-67
2023/07/26 10:15:31;;;;;;;4.50;4.20;;;21.20;95.30;;;;;;4988756;28;20662;-64
2023/07/26 10:17:57;;;;;;;4.70;4.40;;;21.00;94.60;;;;;;4994360;28;20515;-64
2023/07/26 10:20:24;;;;;;;5.20;4.90;;;20.70;95.40;;;;;;4974617;28;20442;-65
2023/07/26 10:22:51;;;;;;;3.50;3.30;;;20.40;96.40;;;;;;4994635;28;20414;-65
2023/07/26 10:25:17;;;;;;;4.67;4.47;;;20.10;97.20;;;;;;4992826;28;20403;-65
2023/07/26 10:27:44;;;;;;;3.70;3.50;;;19.90;97.20;;;;;;4994441;28;20823;-65
2023/07/26 10:30:10;;;;;;;3.97;3.67;;;19.80;97.60;;;;;;4994083;28;20406;-66
2023/07/26 10:32:49;;;;;;;6.13;5.70;;;19.60;98.30;;;;;;4994452;28;20895;-65
2023/07/26 10:35:32;;;;;;;36.30;30.67;;;19.50;99.90;;;;;;4992004;28;20776;-66
2023/07/26 10:37:59;;;;;;;4.70;4.30;;;19.50;99.90;;;;;;4993467;28;20426;-64
2023/07/26 10:40:28;;;;;;;3.30;3.10;;;19.50;99.90;;;;;;4994323;28;20419;-64
2023/07/26 10:42:54;;;;;;;3.67;3.47;;;19.30;99.90;;;;;;4994236;28;20419;-61
2023/07/26 10:45:45;;;;;;;4.07;3.87;;;19.20;99.90;;;;;;4989697;28;20458;-64
2023/07/26 10:48:26;;;;;;;3.83;3.63;;;19.20;99.90;;;;;;4989757;28;20475;-66
2023/07/26 10:50:56;;;;;;;3.70;3.40;;;19.10;99.90;;;;;;4993104;28;20391;-65
2023/07/26 10:53:37;;;;;;;5.00;4.70;;;19.20;99.90;;;;;;4994193;28;20414;-67
2023/07/26 10:56:17;;;;;;;3.80;3.60;;;19.30;99.90;;;;;;4989634;28;20421;-66
2023/07/26 10:58:51;;;;;;;4.03;3.83;;;19.60;99.90;;;;;;4991429;28;20396;-66
2023/07/26 11:01:40;;;;;;;5.87;5.57;;;19.80;99.90;;;;;;4993140;28;20519;-66
2023/07/26 11:04:11;;;;;;;3.20;3.00;;;19.80;99.90;;;;;;4991531;28;20406;-65
2023/07/26 11:07:07;;;;;;;6.47;6.07;;;20.00;99.90;;;;;;4992979;28;20481;-67
2023/07/26 11:09:33;;;;;;;4.20;3.93;;;20.30;99.90;;;;;;4977414;28;20463;-67
2023/07/26 11:12:00;;;;;;;4.90;4.60;;;20.60;99.90;;;;;;4991841;28;20407;-65
2023/07/26 11:14:28;;;;;;;4.40;4.10;;;20.80;99.90;;;;;;4993741;28;20415;-68
2023/07/26 11:16:55;;;;;;;4.93;4.63;;;21.10;99.90;;;;;;4993875;28;20411;-67
2023/07/26 11:19:21;;;;;;;4.17;3.97;;;21.30;99.90;;;;;;4976209;28;20456;-66
2023/07/26 11:21:46;;;;;;;4.37;4.07;;;21.50;99.90;;;;;;4993763;28;20434;-68
2023/07/26 11:24:12;;;;;;;4.63;4.23;;;21.60;99.90;;;;;;4992908;28;20174;-68
2023/07/26 11:26:46;;;;;;;6.00;5.60;;;21.70;99.90;;;;;;4988539;28;20345;-67
2023/07/26 11:29:13;;;;;;;11.77;6.73;;;22.00;99.90;;;;;;4992896;28;20172;-66
2023/07/26 11:31:40;;;;;;;23.60;20.33;;;22.10;98.50;;;;;;4993166;28;20422;-67
2023/07/26 11:34:22;;;;;;;7.03;6.50;;;22.20;97.90;;;;;;4992685;28;20457;-66
2023/07/26 11:36:48;;;;;;;5.13;4.83;;;21.80;95.20;;;;;;4992209;28;20451;-66
2023/07/26 11:39:25;;;;;;;4.47;4.07;;;21.90;97.60;;;;;;4990036;28;20530;-66
2023/07/26 11:41:51;;;;;;;5.83;5.53;;;22.20;98.80;;;;;;4993320;28;20509;-67
2023/07/26 11:44:21;;;;;;;5.60;5.30;;;22.30;97.80;;;;;;4992491;28;20413;-62
2023/07/26 11:46:47;;;;;;;5.90;5.60;;;21.80;97.30;;;;;;4985086;28;20463;-64
2023/07/26 11:49:22;;;;;;;4.70;4.30;;;21.90;99.90;;;;;;4989702;28;20427;-62
2023/07/26 11:51:49;;;;;;;4.57;4.37;;;22.00;99.50;;;;;;4993086;28;20175;-63
2023/07/26 11:54:16;;;;;;;5.17;4.10;;;22.10;98.40;;;;;;4991638;28;20973;-62
2023/07/26 11:56:43;;;;;;;5.33;4.93;;;22.30;97.80;;;;;;4993786;28;20414;-63
2023/07/26 11:59:10;;;;;;;5.57;5.27;;;22.50;97.30;;;;;;4991682;28;20770;-62
2023/07/26 12:01:37;;;;;;;4.97;4.73;;;22.60;97.10;;;;;;4993397;28;20431;-62
2023/07/26 12:04:14;;;;;;;5.47;5.17;;;22.80;97.40;;;;;;4992712;28;20892;-62
2023/07/26 12:06:41;;;;;;;6.50;6.00;;;23.00;98.00;;;;;;4993278;28;20853;-62
2023/07/26 12:09:11;;;;;;;5.70;5.40;;;23.10;97.70;;;;;;4992537;28;20406;-64
2023/07/26 12:11:39;;;;;;;6.27;5.50;;;23.30;96.80;;;;;;4993373;28;20502;-62
2023/07/26 12:14:05;;;;;;;5.43;5.13;;;23.20;95.50;;;;;;4992705;28;20442;-62
2023/07/26 12:16:31;;;;;;;5.60;5.20;;;23.20;96.80;;;;;;4990892;28;20438;-62
2023/07/26 12:19:00;;;;;;;6.40;6.00;;;23.30;96.70;;;;;;4991761;28;20465;-70
2023/07/26 12:21:28;;;;;;;6.97;6.47;;;23.30;95.50;;;;;;4992175;28;20176;-63
2023/07/26 12:23:59;;;;;;;6.10;5.70;;;23.30;93.20;;;;;;4993185;28;20414;-62
2023/07/26 12:26:30;;;;;;;6.80;6.40;;;23.20;93.40;;;;;;4993360;28;20873;-62
2023/07/26 12:28:58;;;;;;;7.20;6.70;;;23.20;93.50;;;;;;4993164;28;20399;-62
2023/07/26 12:31:29;;;;;;;7.40;6.90;;;22.90;94.80;;;;;;4993464;28;20439;-62
2023/07/26 12:34:03;;;;;;;7.13;6.63;;;22.80;95.20;;;;;;4996406;28;20391;-62
2023/07/26 12:36:37;;;;;;;7.00;6.60;;;22.60;95.00;;;;;;4996234;28;20458;-62
2023/07/26 12:39:07;;;;;;;7.60;7.10;;;22.50;95.70;;;;;;4988670;28;20957;-62
2023/07/26 12:41:37;;;;;;;6.57;6.17;;;22.40;97.20;;;;;;4996308;28;20450;-61
2023/07/26 12:44:07;;;;;;;6.97;6.27;;;22.20;94.50;;;;;;4994953;28;20423;-68
2023/07/26 12:46:36;;;;;;;7.50;6.93;;;22.10;94.20;;;;;;4987803;28;20469;-64